Terminal Aerodrome Forecast
Issued by NWS

Home | Current Version | Previous Version | Text Only | Print | Product List | Glossary On
Versions: 1 2 3 4 5 6 7 8 9 10 11 12 13
000
FTUS45 KPSR 290520
TAFBLH
TAF
KBLH 290520Z 2906/3006 VRB04KT P6SM FEW100
     FM290900 35007KT P6SM FEW100
     FM291500 VRB03KT P6SM SCT080
     FM292000 16009KT P6SM VCSH OVC120
     FM292300 18006KT P6SM FEW120 SCT200=

USA.gov is the U.S. government's official web portal to all federal, state and local government web resources and services.